Shuya, Russia
Current Conditions -  °F | °C
As of 4:30 PM on Friday 31 Oct 2014 (Local Time) from UUDL Reporting Station
Overcast Overcast  
Wind Chill: 32°   Ceiling: 3400
Heat Index: 37°   Visibility: 6mi
Dew Point: 30°   Wind: 7mph
Humidity: 75%   Direction: 230°SW
Pressure: 30.03"   Gusts: NA
Location:  56.85°N, 41.36°E
Report Text: UUDL 311330Z 23003MPS 9999 OVC034 03/M01 Q1017 NOSIG RMK QFE75523000060
Loading
Personal Weather Stations






























Interactive Weather Map
Tropical Storm Tracking
New forecast layout! Learn more

10-Day Weather Forecast

Advertisements
Track Severe Weather on mobile